Goodman, Mississippi
Current Conditions -  °F | °C
As of 9:39 PM on Sunday 21 Dec 2014 (Local Time) from KGWO Reporting Station
Scattered Clouds Scattered Clouds  
Wind Chill: 45°   Ceiling: Unl
Heat Index: 48°   Visibility: 10mi
Dew Point: 45°   Wind: 7mph
Humidity: 89%   Direction: 150°SSE
Pressure: 29.96"   Gusts: NA
Location:  32.97°N, 89.91°W
Report Text: KGWO 220339Z AUTO 15006KT 10SM SCT008 09/07 A2996 RMK AO2 T00890072
Loading
Personal Weather Stations






























Interactive Weather Map New forecast layout! Learn more

10-Day Weather Forecast

Advertisements
Track Severe Weather on mobile